Hlavní strana
METAR-TAF:

METAR-TAF

Letiště :

Columbia, Jižní Karolína, Spojené státy americké

zeměpisná šířka: 33-58-15N, zeměpisná délka: 080-59-40W, výška: 64 m

Aktuální stav počasí

Zpráva byla vytvořena před 10 minutami, v 10:53 UTC
Západní vítr 4 kt
Teplota 23°C
Vlhkost vzduchu 73%
Tlak 1021 hPa
Viditelnost: 16.1 km
Skoro jasno ve výšce 5000 ft

METAR: KCUB 241053Z AUTO 27004KT 10SM FEW050 23/18 A3015 RMK AO2 SLP207 T02280178

Čas: 07:03 (11:03 UTC)

Předpověď počasí

Zpráva byla vytvořena před 2 hodinami a 5 minutami, v 08:58 UTC
Předpověď platná od 24 v 09 UTC do 25 v 06 UTC
Jihojihozápadní vítr 4 kt
Viditelnost: 10 km
Skoro jasno ve výšce 4500 ft
Skoro jasno ve výšce 25000 ft
Od 24 v 1400 UTC
Západní vítr 6 kt
Viditelnost: 10 km
Polojasno ve výšce 4500 ft
Od 25 v 0100 UTC
Západní vítr 3 kt
Viditelnost: 10 km
Skoro jasno ve výšce 25000 ft

TAF: KCUB 240858Z 2409/2506 21004KT P6SM FEW045 FEW250 FM241400 27006KT P6SM SCT045 FM250100 28003KT P6SM FEW250

Stav a předpovědi počasí z více než 4 000 letišť (zprávy METAR a TAF).

Červené a žluté tečky na mapě představují dostupné meteorologické stanice.

Když kurzor umístíte na tečku, zobrazí se název stanice.

Pak kliknutím zobrazíte stav a předpověď počasí.

Chcete-li změnit mapu, kliknutím na zelené tlačítko se znaménkem +mapu přiblížíte, kliknutím na zelené tlačítko se znaménkem – mapu oddálíte a kliknutím na zelené šipky přejdete na sousední mapy.


METAR-TAF: